sensor_id;sensor_type;location;lat;lon;timestamp;P1;durP1;ratioP1;P2;durP2;ratioP2
66721;SDS011;53633;49.932;10.884;2023-03-29T00:00:41;7.50;;;1.40;;
66721;SDS011;53633;49.932;10.884;2023-03-29T00:03:08;10.98;;;2.28;;
66721;SDS011;53633;49.932;10.884;2023-03-29T00:05:38;7.25;;;1.65;;
66721;SDS011;53633;49.932;10.884;2023-03-29T00:08:05;9.10;;;3.08;;
66721;SDS011;53633;49.932;10.884;2023-03-29T00:10:32;6.60;;;2.28;;
66721;SDS011;53633;49.932;10.884;2023-03-29T00:13:00;8.27;;;2.10;;
66721;SDS011;53633;49.932;10.884;2023-03-29T00:15:27;7.45;;;2.25;;
66721;SDS011;53633;49.932;10.884;2023-03-29T00:17:54;7.63;;;2.30;;
66721;SDS011;53633;49.932;10.884;2023-03-29T00:20:20;7.45;;;1.48;;
66721;SDS011;53633;49.932;10.884;2023-03-29T00:22:48;7.87;;;1.97;;
66721;SDS011;53633;49.932;10.884;2023-03-29T00:25:15;7.43;;;1.83;;
66721;SDS011;53633;49.932;10.884;2023-03-29T00:27:42;6.70;;;2.20;;
66721;SDS011;53633;49.932;10.884;2023-03-29T00:30:09;5.70;;;1.75;;
66721;SDS011;53633;49.932;10.884;2023-03-29T00:32:36;6.80;;;2.13;;
66721;SDS011;53633;49.932;10.884;2023-03-29T00:35:03;7.30;;;2.00;;
66721;SDS011;53633;49.932;10.884;2023-03-29T00:37:30;6.18;;;1.95;;
66721;SDS011;53633;49.932;10.884;2023-03-29T00:39:59;6.25;;;2.33;;
66721;SDS011;53633;49.932;10.884;2023-03-29T00:42:25;8.55;;;2.28;;
66721;SDS011;53633;49.932;10.884;2023-03-29T00:45:03;6.75;;;2.15;;
66721;SDS011;53633;49.932;10.884;2023-03-29T00:47:32;6.87;;;1.97;;
66721;SDS011;53633;49.932;10.884;2023-03-29T00:50:04;8.65;;;2.10;;
66721;SDS011;53633;49.932;10.884;2023-03-29T00:52:35;5.45;;;2.10;;
66721;SDS011;53633;49.932;10.884;2023-03-29T00:55:05;7.95;;;2.00;;
66721;SDS011;53633;49.932;10.884;2023-03-29T00:57:36;7.13;;;2.13;;
66721;SDS011;53633;49.932;10.884;2023-03-29T01:00:05;5.93;;;2.07;;
66721;SDS011;53633;49.932;10.884;2023-03-29T01:02:33;6.80;;;2.03;;
66721;SDS011;53633;49.932;10.884;2023-03-29T01:05:03;6.82;;;2.05;;
66721;SDS011;53633;49.932;10.884;2023-03-29T01:07:33;7.40;;;1.90;;
66721;SDS011;53633;49.932;10.884;2023-03-29T01:10:08;7.30;;;1.90;;
66721;SDS011;53633;49.932;10.884;2023-03-29T01:12:38;6.25;;;1.58;;
66721;SDS011;53633;49.932;10.884;2023-03-29T01:15:08;8.65;;;1.95;;
66721;SDS011;53633;49.932;10.884;2023-03-29T01:17:36;6.90;;;1.95;;
66721;SDS011;53633;49.932;10.884;2023-03-29T01:20:04;6.75;;;1.80;;
66721;SDS011;53633;49.932;10.884;2023-03-29T01:22:38;8.18;;;1.70;;
66721;SDS011;53633;49.932;10.884;2023-03-29T01:25:16;5.30;;;1.80;;
66721;SDS011;53633;49.932;10.884;2023-03-29T01:27:49;8.77;;;1.80;;
66721;SDS011;53633;49.932;10.884;2023-03-29T01:30:20;8.50;;;2.60;;
66721;SDS011;53633;49.932;10.884;2023-03-29T01:32:50;6.40;;;1.90;;
66721;SDS011;53633;49.932;10.884;2023-03-29T01:35:21;7.07;;;2.00;;
66721;SDS011;53633;49.932;10.884;2023-03-29T01:37:53;6.37;;;1.80;;
66721;SDS011;53633;49.932;10.884;2023-03-29T01:40:25;8.15;;;1.80;;
66721;SDS011;53633;49.932;10.884;2023-03-29T01:42:54;9.60;;;2.58;;
66721;SDS011;53633;49.932;10.884;2023-03-29T01:45:29;8.40;;;1.80;;
66721;SDS011;53633;49.932;10.884;2023-03-29T01:48:02;6.20;;;1.40;;
66721;SDS011;53633;49.932;10.884;2023-03-29T01:50:36;7.20;;;2.17;;
66721;SDS011;53633;49.932;10.884;2023-03-29T01:53:08;8.48;;;1.95;;
66721;SDS011;53633;49.932;10.884;2023-03-29T01:55:37;8.70;;;2.05;;
66721;SDS011;53633;49.932;10.884;2023-03-29T01:58:07;5.88;;;1.77;;
66721;SDS011;53633;49.932;10.884;2023-03-29T02:00:35;6.60;;;1.60;;
66721;SDS011;53633;49.932;10.884;2023-03-29T02:03:05;7.17;;;2.00;;
66721;SDS011;53633;49.932;10.884;2023-03-29T02:05:34;6.78;;;2.05;;
66721;SDS011;53633;49.932;10.884;2023-03-29T02:08:04;6.15;;;2.30;;
66721;SDS011;53633;49.932;10.884;2023-03-29T02:10:33;7.38;;;2.35;;
66721;SDS011;53633;49.932;10.884;2023-03-29T02:13:01;9.38;;;2.00;;
66721;SDS011;53633;49.932;10.884;2023-03-29T02:15:30;5.67;;;2.07;;
66721;SDS011;53633;49.932;10.884;2023-03-29T02:17:56;9.73;;;2.25;;
66721;SDS011;53633;49.932;10.884;2023-03-29T02:20:23;8.73;;;2.95;;
66721;SDS011;53633;49.932;10.884;2023-03-29T02:22:57;6.50;;;2.05;;
66721;SDS011;53633;49.932;10.884;2023-03-29T02:25:27;11.85;;;2.60;;
66721;SDS011;53633;49.932;10.884;2023-03-29T02:27:54;11.93;;;3.23;;
66721;SDS011;53633;49.932;10.884;2023-03-29T02:30:21;5.97;;;2.20;;
66721;SDS011;53633;49.932;10.884;2023-03-29T02:32:52;8.98;;;2.40;;
66721;SDS011;53633;49.932;10.884;2023-03-29T02:35:25;7.30;;;2.78;;
66721;SDS011;53633;49.932;10.884;2023-03-29T02:37:57;7.82;;;1.95;;
66721;SDS011;53633;49.932;10.884;2023-03-29T02:40:24;8.00;;;1.97;;
66721;SDS011;53633;49.932;10.884;2023-03-29T02:42:51;7.43;;;2.20;;
66721;SDS011;53633;49.932;10.884;2023-03-29T02:45:20;6.00;;;1.70;;
66721;SDS011;53633;49.932;10.884;2023-03-29T02:47:49;6.43;;;2.15;;
66721;SDS011;53633;49.932;10.884;2023-03-29T02:50:19;7.25;;;2.13;;
66721;SDS011;53633;49.932;10.884;2023-03-29T02:52:49;6.80;;;2.20;;
66721;SDS011;53633;49.932;10.884;2023-03-29T02:55:18;5.40;;;1.75;;
66721;SDS011;53633;49.932;10.884;2023-03-29T02:57:49;7.22;;;2.15;;
66721;SDS011;53633;49.932;10.884;2023-03-29T03:00:16;6.90;;;2.20;;
66721;SDS011;53633;49.932;10.884;2023-03-29T03:02:43;7.28;;;2.08;;
66721;SDS011;53633;49.932;10.884;2023-03-29T03:05:10;7.40;;;2.40;;
66721;SDS011;53633;49.932;10.884;2023-03-29T03:07:38;8.52;;;2.80;;
66721;SDS011;53633;49.932;10.884;2023-03-29T03:10:05;8.68;;;2.33;;
66721;SDS011;53633;49.932;10.884;2023-03-29T03:12:33;9.75;;;2.25;;
66721;SDS011;53633;49.932;10.884;2023-03-29T03:15:00;8.30;;;2.35;;
66721;SDS011;53633;49.932;10.884;2023-03-29T03:17:26;7.07;;;2.42;;
66721;SDS011;53633;49.932;10.884;2023-03-29T03:19:53;8.02;;;2.17;;
66721;SDS011;53633;49.932;10.884;2023-03-29T03:22:20;9.88;;;2.55;;
66721;SDS011;53633;49.932;10.884;2023-03-29T03:24:48;10.32;;;2.10;;
66721;SDS011;53633;49.932;10.884;2023-03-29T03:27:14;8.15;;;2.60;;
66721;SDS011;53633;49.932;10.884;2023-03-29T03:29:41;6.43;;;2.27;;
66721;SDS011;53633;49.932;10.884;2023-03-29T03:32:08;8.95;;;2.38;;
66721;SDS011;53633;49.932;10.884;2023-03-29T03:34:34;8.02;;;2.20;;
66721;SDS011;53633;49.932;10.884;2023-03-29T03:37:01;7.18;;;1.80;;
66721;SDS011;53633;49.932;10.884;2023-03-29T03:39:28;8.48;;;1.98;;
66721;SDS011;53633;49.932;10.884;2023-03-29T03:41:56;7.43;;;2.37;;
66721;SDS011;53633;49.932;10.884;2023-03-29T03:44:22;6.22;;;2.13;;
66721;SDS011;53633;49.932;10.884;2023-03-29T03:46:49;11.55;;;2.63;;
66721;SDS011;53633;49.932;10.884;2023-03-29T03:49:16;10.27;;;2.25;;
66721;SDS011;53633;49.932;10.884;2023-03-29T03:51:42;7.40;;;2.45;;
66721;SDS011;53633;49.932;10.884;2023-03-29T03:54:09;6.70;;;2.63;;
66721;SDS011;53633;49.932;10.884;2023-03-29T03:56:35;11.40;;;2.35;;
66721;SDS011;53633;49.932;10.884;2023-03-29T03:59:04;8.20;;;2.58;;
66721;SDS011;53633;49.932;10.884;2023-03-29T04:01:30;8.98;;;2.55;;
66721;SDS011;53633;49.932;10.884;2023-03-29T04:03:57;9.85;;;2.45;;
66721;SDS011;53633;49.932;10.884;2023-03-29T04:06:24;8.60;;;1.97;;
66721;SDS011;53633;49.932;10.884;2023-03-29T04:08:50;7.60;;;2.47;;
66721;SDS011;53633;49.932;10.884;2023-03-29T04:11:17;11.00;;;2.67;;
66721;SDS011;53633;49.932;10.884;2023-03-29T04:13:44;8.90;;;2.70;;
66721;SDS011;53633;49.932;10.884;2023-03-29T04:16:13;7.45;;;2.22;;
66721;SDS011;53633;49.932;10.884;2023-03-29T04:18:42;8.33;;;2.40;;
66721;SDS011;53633;49.932;10.884;2023-03-29T04:21:09;8.52;;;2.83;;
66721;SDS011;53633;49.932;10.884;2023-03-29T04:23:36;7.93;;;3.05;;
66721;SDS011;53633;49.932;10.884;2023-03-29T04:26:03;10.90;;;2.28;;
66721;SDS011;53633;49.932;10.884;2023-03-29T04:28:30;9.70;;;3.17;;
66721;SDS011;53633;49.932;10.884;2023-03-29T04:30:56;6.07;;;2.20;;
66721;SDS011;53633;49.932;10.884;2023-03-29T04:33:24;8.73;;;2.33;;
66721;SDS011;53633;49.932;10.884;2023-03-29T04:35:51;10.38;;;2.30;;
66721;SDS011;53633;49.932;10.884;2023-03-29T04:38:18;8.18;;;2.70;;
66721;SDS011;53633;49.932;10.884;2023-03-29T04:40:44;8.55;;;2.17;;
66721;SDS011;53633;49.932;10.884;2023-03-29T04:43:11;6.57;;;2.00;;
66721;SDS011;53633;49.932;10.884;2023-03-29T04:45:37;6.82;;;2.20;;
66721;SDS011;53633;49.932;10.884;2023-03-29T04:48:04;8.77;;;2.30;;
66721;SDS011;53633;49.932;10.884;2023-03-29T04:50:32;6.55;;;2.17;;
66721;SDS011;53633;49.932;10.884;2023-03-29T04:52:59;7.63;;;2.28;;
66721;SDS011;53633;49.932;10.884;2023-03-29T04:55:25;8.80;;;2.67;;
66721;SDS011;53633;49.932;10.884;2023-03-29T04:57:52;7.95;;;2.80;;
66721;SDS011;53633;49.932;10.884;2023-03-29T05:00:19;7.25;;;2.63;;
66721;SDS011;53633;49.932;10.884;2023-03-29T05:02:46;7.70;;;2.00;;
66721;SDS011;53633;49.932;10.884;2023-03-29T05:05:13;8.57;;;2.30;;
66721;SDS011;53633;49.932;10.884;2023-03-29T05:07:41;7.70;;;2.50;;
66721;SDS011;53633;49.932;10.884;2023-03-29T05:10:08;7.07;;;1.92;;
66721;SDS011;53633;49.932;10.884;2023-03-29T05:12:34;7.07;;;2.33;;
66721;SDS011;53633;49.932;10.884;2023-03-29T05:15:02;6.22;;;2.08;;
66721;SDS011;53633;49.932;10.884;2023-03-29T05:17:28;7.88;;;2.15;;
66721;SDS011;53633;49.932;10.884;2023-03-29T05:19:55;10.17;;;2.80;;
66721;SDS011;53633;49.932;10.884;2023-03-29T05:22:22;7.22;;;2.42;;
66721;SDS011;53633;49.932;10.884;2023-03-29T05:24:50;8.00;;;2.67;;
66721;SDS011;53633;49.932;10.884;2023-03-29T05:27:17;8.32;;;2.55;;
66721;SDS011;53633;49.932;10.884;2023-03-29T05:29:45;6.57;;;2.15;;
66721;SDS011;53633;49.932;10.884;2023-03-29T05:32:12;7.50;;;2.53;;
66721;SDS011;53633;49.932;10.884;2023-03-29T05:34:39;11.93;;;2.53;;
66721;SDS011;53633;49.932;10.884;2023-03-29T05:37:06;7.00;;;2.53;;
66721;SDS011;53633;49.932;10.884;2023-03-29T05:39:32;9.70;;;2.53;;
66721;SDS011;53633;49.932;10.884;2023-03-29T05:42:04;10.95;;;2.70;;
66721;SDS011;53633;49.932;10.884;2023-03-29T05:44:31;9.00;;;2.90;;
66721;SDS011;53633;49.932;10.884;2023-03-29T05:46:57;9.57;;;2.78;;
66721;SDS011;53633;49.932;10.884;2023-03-29T05:49:24;7.80;;;2.38;;
66721;SDS011;53633;49.932;10.884;2023-03-29T05:51:51;9.18;;;2.67;;
66721;SDS011;53633;49.932;10.884;2023-03-29T05:54:17;8.10;;;2.55;;
66721;SDS011;53633;49.932;10.884;2023-03-29T05:56:44;6.03;;;2.17;;
66721;SDS011;53633;49.932;10.884;2023-03-29T05:59:12;7.70;;;2.75;;
66721;SDS011;53633;49.932;10.884;2023-03-29T06:01:39;8.35;;;2.67;;
66721;SDS011;53633;49.932;10.884;2023-03-29T06:04:05;7.43;;;2.20;;
66721;SDS011;53633;49.932;10.884;2023-03-29T06:06:32;8.30;;;2.63;;
66721;SDS011;53633;49.932;10.884;2023-03-29T06:08:59;10.77;;;3.00;;
66721;SDS011;53633;49.932;10.884;2023-03-29T06:11:25;10.40;;;2.65;;
66721;SDS011;53633;49.932;10.884;2023-03-29T06:13:52;8.07;;;2.60;;
66721;SDS011;53633;49.932;10.884;2023-03-29T06:16:20;7.80;;;2.40;;
66721;SDS011;53633;49.932;10.884;2023-03-29T06:18:47;8.00;;;2.17;;
66721;SDS011;53633;49.932;10.884;2023-03-29T06:21:14;7.03;;;2.57;;
66721;SDS011;53633;49.932;10.884;2023-03-29T06:23:40;7.97;;;2.90;;
66721;SDS011;53633;49.932;10.884;2023-03-29T06:26:07;9.82;;;3.28;;
66721;SDS011;53633;49.932;10.884;2023-03-29T06:28:34;8.25;;;2.70;;
66721;SDS011;53633;49.932;10.884;2023-03-29T06:31:00;9.18;;;2.20;;
66721;SDS011;53633;49.932;10.884;2023-03-29T06:33:31;9.47;;;2.70;;
66721;SDS011;53633;49.932;10.884;2023-03-29T06:35:58;8.30;;;2.70;;
66721;SDS011;53633;49.932;10.884;2023-03-29T06:38:25;10.88;;;3.35;;
66721;SDS011;53633;49.932;10.884;2023-03-29T06:40:58;9.15;;;2.63;;
66721;SDS011;53633;49.932;10.884;2023-03-29T06:43:26;7.10;;;2.83;;
66721;SDS011;53633;49.932;10.884;2023-03-29T06:45:52;9.03;;;2.40;;
66721;SDS011;53633;49.932;10.884;2023-03-29T06:48:20;8.38;;;2.35;;
66721;SDS011;53633;49.932;10.884;2023-03-29T06:50:48;10.13;;;3.00;;
66721;SDS011;53633;49.932;10.884;2023-03-29T06:53:14;7.18;;;2.05;;
66721;SDS011;53633;49.932;10.884;2023-03-29T06:55:41;6.72;;;1.90;;
66721;SDS011;53633;49.932;10.884;2023-03-29T06:58:08;9.43;;;2.67;;
66721;SDS011;53633;49.932;10.884;2023-03-29T07:00:35;8.88;;;2.60;;
66721;SDS011;53633;49.932;10.884;2023-03-29T07:03:03;6.93;;;2.47;;
66721;SDS011;53633;49.932;10.884;2023-03-29T07:05:31;6.63;;;2.22;;
66721;SDS011;53633;49.932;10.884;2023-03-29T07:07:59;8.50;;;2.33;;
66721;SDS011;53633;49.932;10.884;2023-03-29T07:10:26;8.90;;;2.80;;
66721;SDS011;53633;49.932;10.884;2023-03-29T07:12:54;6.78;;;2.47;;
66721;SDS011;53633;49.932;10.884;2023-03-29T07:15:21;7.80;;;2.33;;
66721;SDS011;53633;49.932;10.884;2023-03-29T07:17:48;7.25;;;2.30;;
66721;SDS011;53633;49.932;10.884;2023-03-29T07:20:14;8.57;;;2.75;;
66721;SDS011;53633;49.932;10.884;2023-03-29T07:22:41;8.63;;;2.58;;
66721;SDS011;53633;49.932;10.884;2023-03-29T07:25:10;10.02;;;2.85;;
66721;SDS011;53633;49.932;10.884;2023-03-29T07:27:38;8.40;;;2.53;;
66721;SDS011;53633;49.932;10.884;2023-03-29T07:30:06;7.30;;;2.50;;
66721;SDS011;53633;49.932;10.884;2023-03-29T07:32:36;7.97;;;2.28;;
66721;SDS011;53633;49.932;10.884;2023-03-29T07:35:04;6.07;;;2.42;;
66721;SDS011;53633;49.932;10.884;2023-03-29T07:37:31;8.25;;;2.60;;
66721;SDS011;53633;49.932;10.884;2023-03-29T07:39:59;6.90;;;2.47;;
66721;SDS011;53633;49.932;10.884;2023-03-29T07:42:28;7.68;;;2.13;;
66721;SDS011;53633;49.932;10.884;2023-03-29T07:44:54;7.85;;;2.72;;
66721;SDS011;53633;49.932;10.884;2023-03-29T07:47:21;8.25;;;2.78;;
66721;SDS011;53633;49.932;10.884;2023-03-29T07:49:47;9.77;;;3.17;;
66721;SDS011;53633;49.932;10.884;2023-03-29T07:52:14;10.35;;;2.50;;
66721;SDS011;53633;49.932;10.884;2023-03-29T07:54:41;7.90;;;2.88;;
66721;SDS011;53633;49.932;10.884;2023-03-29T07:57:07;8.13;;;2.70;;
66721;SDS011;53633;49.932;10.884;2023-03-29T07:59:36;7.43;;;2.40;;
66721;SDS011;53633;49.932;10.884;2023-03-29T08:02:02;6.20;;;2.10;;
66721;SDS011;53633;49.932;10.884;2023-03-29T08:04:29;7.32;;;2.65;;
66721;SDS011;53633;49.932;10.884;2023-03-29T08:06:56;9.27;;;2.88;;
66721;SDS011;53633;49.932;10.884;2023-03-29T08:09:22;7.55;;;2.83;;
66721;SDS011;53633;49.932;10.884;2023-03-29T08:11:49;6.53;;;2.20;;
66721;SDS011;53633;49.932;10.884;2023-03-29T08:14:16;7.25;;;2.40;;
66721;SDS011;53633;49.932;10.884;2023-03-29T08:16:44;8.20;;;2.38;;
66721;SDS011;53633;49.932;10.884;2023-03-29T08:19:10;6.78;;;2.42;;
66721;SDS011;53633;49.932;10.884;2023-03-29T08:21:37;8.90;;;3.10;;
66721;SDS011;53633;49.932;10.884;2023-03-29T08:24:04;7.93;;;2.65;;
66721;SDS011;53633;49.932;10.884;2023-03-29T08:26:32;7.82;;;2.63;;
66721;SDS011;53633;49.932;10.884;2023-03-29T08:28:58;6.60;;;2.40;;
66721;SDS011;53633;49.932;10.884;2023-03-29T08:31:25;7.00;;;2.53;;
66721;SDS011;53633;49.932;10.884;2023-03-29T08:33:53;6.78;;;2.33;;
66721;SDS011;53633;49.932;10.884;2023-03-29T08:36:20;6.97;;;2.90;;
66721;SDS011;53633;49.932;10.884;2023-03-29T08:38:46;6.53;;;2.30;;
66721;SDS011;53633;49.932;10.884;2023-03-29T08:41:18;7.45;;;2.70;;
66721;SDS011;53633;49.932;10.884;2023-03-29T08:43:55;6.80;;;2.70;;
66721;SDS011;53633;49.932;10.884;2023-03-29T08:46:33;8.43;;;3.05;;
66721;SDS011;53633;49.932;10.884;2023-03-29T08:49:07;7.35;;;2.63;;
66721;SDS011;53633;49.932;10.884;2023-03-29T08:51:37;7.43;;;2.42;;
66721;SDS011;53633;49.932;10.884;2023-03-29T08:54:09;7.25;;;2.70;;
66721;SDS011;53633;49.932;10.884;2023-03-29T08:56:40;7.38;;;2.63;;
66721;SDS011;53633;49.932;10.884;2023-03-29T08:59:11;8.15;;;2.78;;
66721;SDS011;53633;49.932;10.884;2023-03-29T09:01:43;7.75;;;2.25;;
66721;SDS011;53633;49.932;10.884;2023-03-29T09:04:16;7.53;;;2.92;;
66721;SDS011;53633;49.932;10.884;2023-03-29T09:06:44;9.23;;;2.88;;
66721;SDS011;53633;49.932;10.884;2023-03-29T09:09:12;6.85;;;2.53;;
66721;SDS011;53633;49.932;10.884;2023-03-29T09:11:46;7.60;;;2.10;;
66721;SDS011;53633;49.932;10.884;2023-03-29T09:14:28;6.40;;;2.40;;
66721;SDS011;53633;49.932;10.884;2023-03-29T09:17:14;6.28;;;2.67;;
66721;SDS011;53633;49.932;10.884;2023-03-29T09:19:54;7.95;;;2.55;;
66721;SDS011;53633;49.932;10.884;2023-03-29T09:22:27;7.35;;;2.53;;
66721;SDS011;53633;49.932;10.884;2023-03-29T09:25:04;5.88;;;2.17;;
66721;SDS011;53633;49.932;10.884;2023-03-29T09:27:39;8.98;;;2.63;;
66721;SDS011;53633;49.932;10.884;2023-03-29T09:30:13;7.32;;;2.67;;
66721;SDS011;53633;49.932;10.884;2023-03-29T09:32:43;7.60;;;2.72;;
66721;SDS011;53633;49.932;10.884;2023-03-29T09:35:18;8.02;;;2.83;;
66721;SDS011;53633;49.932;10.884;2023-03-29T09:37:49;6.03;;;2.33;;
66721;SDS011;53633;49.932;10.884;2023-03-29T09:40:18;7.18;;;2.20;;
66721;SDS011;53633;49.932;10.884;2023-03-29T09:42:49;5.55;;;2.08;;
66721;SDS011;53633;49.932;10.884;2023-03-29T09:45:19;6.05;;;2.15;;
66721;SDS011;53633;49.932;10.884;2023-03-29T09:47:46;7.50;;;2.10;;
66721;SDS011;53633;49.932;10.884;2023-03-29T09:50:18;6.03;;;1.95;;
66721;SDS011;53633;49.932;10.884;2023-03-29T09:52:56;6.68;;;2.30;;
66721;SDS011;53633;49.932;10.884;2023-03-29T09:55:25;5.47;;;1.85;;
66721;SDS011;53633;49.932;10.884;2023-03-29T09:57:54;6.47;;;1.88;;
66721;SDS011;53633;49.932;10.884;2023-03-29T10:00:25;6.32;;;1.95;;
66721;SDS011;53633;49.932;10.884;2023-03-29T10:02:52;6.78;;;2.17;;
66721;SDS011;53633;49.932;10.884;2023-03-29T10:05:22;7.15;;;2.47;;
66721;SDS011;53633;49.932;10.884;2023-03-29T10:07:51;6.10;;;2.07;;
66721;SDS011;53633;49.932;10.884;2023-03-29T10:10:19;5.78;;;2.42;;
66721;SDS011;53633;49.932;10.884;2023-03-29T10:12:48;6.05;;;2.63;;
66721;SDS011;53633;49.932;10.884;2023-03-29T10:15:17;6.07;;;1.92;;
66721;SDS011;53633;49.932;10.884;2023-03-29T10:17:56;4.85;;;1.85;;
66721;SDS011;53633;49.932;10.884;2023-03-29T10:20:25;7.50;;;2.80;;
66721;SDS011;53633;49.932;10.884;2023-03-29T10:22:54;5.25;;;1.77;;
66721;SDS011;53633;49.932;10.884;2023-03-29T10:25:23;7.10;;;2.20;;
66721;SDS011;53633;49.932;10.884;2023-03-29T10:27:51;5.97;;;1.98;;
66721;SDS011;53633;49.932;10.884;2023-03-29T10:30:23;4.53;;;1.80;;
66721;SDS011;53633;49.932;10.884;2023-03-29T10:32:51;6.20;;;1.73;;
66721;SDS011;53633;49.932;10.884;2023-03-29T10:35:22;7.45;;;1.92;;
66721;SDS011;53633;49.932;10.884;2023-03-29T10:37:52;5.88;;;2.15;;
66721;SDS011;53633;49.932;10.884;2023-03-29T10:40:25;5.90;;;2.00;;
66721;SDS011;53633;49.932;10.884;2023-03-29T10:42:57;7.63;;;2.10;;
66721;SDS011;53633;49.932;10.884;2023-03-29T10:45:26;6.13;;;1.70;;
66721;SDS011;53633;49.932;10.884;2023-03-29T10:47:54;5.28;;;1.65;;
66721;SDS011;53633;49.932;10.884;2023-03-29T10:50:21;5.30;;;1.58;;
66721;SDS011;53633;49.932;10.884;2023-03-29T10:52:48;4.95;;;2.00;;
66721;SDS011;53633;49.932;10.884;2023-03-29T10:55:16;5.05;;;1.98;;
66721;SDS011;53633;49.932;10.884;2023-03-29T10:57:45;4.40;;;1.57;;
66721;SDS011;53633;49.932;10.884;2023-03-29T11:00:20;4.72;;;1.40;;
66721;SDS011;53633;49.932;10.884;2023-03-29T11:02:57;5.22;;;1.77;;
66721;SDS011;53633;49.932;10.884;2023-03-29T11:05:38;4.70;;;1.63;;
66721;SDS011;53633;49.932;10.884;2023-03-29T11:11:20;4.73;;;1.60;;
66721;SDS011;53633;49.932;10.884;2023-03-29T11:13:57;6.78;;;1.77;;
66721;SDS011;53633;49.932;10.884;2023-03-29T11:16:30;5.97;;;2.03;;
66721;SDS011;53633;49.932;10.884;2023-03-29T11:19:10;3.63;;;1.30;;
66721;SDS011;53633;49.932;10.884;2023-03-29T11:21:46;6.05;;;1.70;;
66721;SDS011;53633;49.932;10.884;2023-03-29T11:24:27;8.32;;;2.42;;
66721;SDS011;53633;49.932;10.884;2023-03-29T11:27:10;5.65;;;1.60;;
66721;SDS011;53633;49.932;10.884;2023-03-29T11:29:47;4.72;;;1.55;;
66721;SDS011;53633;49.932;10.884;2023-03-29T11:32:25;6.85;;;1.35;;
66721;SDS011;53633;49.932;10.884;2023-03-29T11:35:00;5.13;;;1.20;;
66721;SDS011;53633;49.932;10.884;2023-03-29T11:37:37;4.67;;;1.30;;
66721;SDS011;53633;49.932;10.884;2023-03-29T11:40:15;4.82;;;1.52;;
66721;SDS011;53633;49.932;10.884;2023-03-29T11:42:55;4.88;;;1.50;;
66721;SDS011;53633;49.932;10.884;2023-03-29T11:45:31;6.05;;;1.80;;
66721;SDS011;53633;49.932;10.884;2023-03-29T11:48:01;6.20;;;1.23;;
66721;SDS011;53633;49.932;10.884;2023-03-29T11:50:33;5.17;;;1.70;;
66721;SDS011;53633;49.932;10.884;2023-03-29T11:53:04;9.38;;;1.80;;
66721;SDS011;53633;49.932;10.884;2023-03-29T11:55:36;5.05;;;1.63;;
66721;SDS011;53633;49.932;10.884;2023-03-29T11:58:07;5.22;;;1.63;;
66721;SDS011;53633;49.932;10.884;2023-03-29T12:00:41;6.93;;;1.33;;
66721;SDS011;53633;49.932;10.884;2023-03-29T12:03:12;5.77;;;1.40;;
66721;SDS011;53633;49.932;10.884;2023-03-29T12:05:45;8.48;;;1.67;;
66721;SDS011;53633;49.932;10.884;2023-03-29T12:08:17;3.92;;;1.33;;
66721;SDS011;53633;49.932;10.884;2023-03-29T12:10:48;4.55;;;1.50;;
66721;SDS011;53633;49.932;10.884;2023-03-29T12:13:23;4.93;;;1.20;;
66721;SDS011;53633;49.932;10.884;2023-03-29T12:15:57;5.93;;;1.80;;
66721;SDS011;53633;49.932;10.884;2023-03-29T12:18:28;7.07;;;1.63;;
66721;SDS011;53633;49.932;10.884;2023-03-29T12:20:58;5.13;;;1.25;;
66721;SDS011;53633;49.932;10.884;2023-03-29T12:23:28;5.70;;;1.10;;
66721;SDS011;53633;49.932;10.884;2023-03-29T12:25:56;3.47;;;1.15;;
66721;SDS011;53633;49.932;10.884;2023-03-29T12:31:33;4.38;;;1.20;;
66721;SDS011;53633;49.932;10.884;2023-03-29T12:34:19;5.32;;;1.50;;
66721;SDS011;53633;49.932;10.884;2023-03-29T12:40:08;6.15;;;1.50;;
66721;SDS011;53633;49.932;10.884;2023-03-29T12:42:44;5.67;;;1.57;;
66721;SDS011;53633;49.932;10.884;2023-03-29T12:45:13;6.20;;;1.50;;
66721;SDS011;53633;49.932;10.884;2023-03-29T12:47:45;4.93;;;1.40;;
66721;SDS011;53633;49.932;10.884;2023-03-29T12:50:21;4.82;;;1.38;;
66721;SDS011;53633;49.932;10.884;2023-03-29T12:52:51;4.18;;;1.20;;
66721;SDS011;53633;49.932;10.884;2023-03-29T12:55:21;6.23;;;1.53;;
66721;SDS011;53633;49.932;10.884;2023-03-29T12:57:59;6.30;;;1.40;;
66721;SDS011;53633;49.932;10.884;2023-03-29T13:00:30;6.30;;;1.30;;
66721;SDS011;53633;49.932;10.884;2023-03-29T13:03:02;4.20;;;1.30;;
66721;SDS011;53633;49.932;10.884;2023-03-29T13:05:31;5.13;;;1.80;;
66721;SDS011;53633;49.932;10.884;2023-03-29T13:08:09;5.50;;;1.60;;
66721;SDS011;53633;49.932;10.884;2023-03-29T13:10:38;3.42;;;1.30;;
66721;SDS011;53633;49.932;10.884;2023-03-29T13:13:10;3.72;;;1.05;;
66721;SDS011;53633;49.932;10.884;2023-03-29T13:15:42;5.40;;;1.45;;
66721;SDS011;53633;49.932;10.884;2023-03-29T13:18:12;6.45;;;1.77;;
66721;SDS011;53633;49.932;10.884;2023-03-29T13:20:54;5.57;;;1.43;;
66721;SDS011;53633;49.932;10.884;2023-03-29T13:23:29;4.93;;;1.30;;
66721;SDS011;53633;49.932;10.884;2023-03-29T13:26:10;6.07;;;1.70;;
66721;SDS011;53633;49.932;10.884;2023-03-29T13:28:45;4.40;;;1.60;;
66721;SDS011;53633;49.932;10.884;2023-03-29T13:31:28;5.97;;;1.48;;
66721;SDS011;53633;49.932;10.884;2023-03-29T13:34:02;4.13;;;1.13;;
66721;SDS011;53633;49.932;10.884;2023-03-29T13:36:34;4.53;;;1.20;;
66721;SDS011;53633;49.932;10.884;2023-03-29T13:39:14;4.10;;;1.20;;
66721;SDS011;53633;49.932;10.884;2023-03-29T13:41:45;5.78;;;1.88;;
66721;SDS011;53633;49.932;10.884;2023-03-29T13:44:16;5.53;;;1.65;;
66721;SDS011;53633;49.932;10.884;2023-03-29T13:46:59;5.80;;;1.83;;
66721;SDS011;53633;49.932;10.884;2023-03-29T13:49:30;5.35;;;1.50;;
66721;SDS011;53633;49.932;10.884;2023-03-29T13:52:10;5.18;;;1.48;;
66721;SDS011;53633;49.932;10.884;2023-03-29T13:54:40;7.07;;;1.50;;
66721;SDS011;53633;49.932;10.884;2023-03-29T13:57:10;7.15;;;1.63;;
66721;SDS011;53633;49.932;10.884;2023-03-29T13:59:43;6.80;;;1.30;;
66721;SDS011;53633;49.932;10.884;2023-03-29T14:02:18;5.35;;;1.40;;
66721;SDS011;53633;49.932;10.884;2023-03-29T14:04:49;6.43;;;1.40;;
66721;SDS011;53633;49.932;10.884;2023-03-29T14:07:17;4.47;;;1.52;;
66721;SDS011;53633;49.932;10.884;2023-03-29T14:09:47;7.13;;;2.10;;
66721;SDS011;53633;49.932;10.884;2023-03-29T14:12:15;8.10;;;2.57;;
66721;SDS011;53633;49.932;10.884;2023-03-29T14:14:43;10.23;;;3.45;;
66721;SDS011;53633;49.932;10.884;2023-03-29T14:17:24;7.82;;;2.40;;
66721;SDS011;53633;49.932;10.884;2023-03-29T14:19:52;5.57;;;1.88;;
66721;SDS011;53633;49.932;10.884;2023-03-29T14:22:23;6.70;;;1.52;;
66721;SDS011;53633;49.932;10.884;2023-03-29T14:24:55;5.77;;;1.50;;
66721;SDS011;53633;49.932;10.884;2023-03-29T14:27:28;5.28;;;1.58;;
66721;SDS011;53633;49.932;10.884;2023-03-29T14:29:56;5.07;;;1.70;;
66721;SDS011;53633;49.932;10.884;2023-03-29T14:32:26;4.50;;;1.50;;
66721;SDS011;53633;49.932;10.884;2023-03-29T14:34:55;4.78;;;1.23;;
66721;SDS011;53633;49.932;10.884;2023-03-29T14:37:23;4.13;;;1.43;;
66721;SDS011;53633;49.932;10.884;2023-03-29T14:39:51;5.10;;;1.30;;
66721;SDS011;53633;49.932;10.884;2023-03-29T14:42:19;6.53;;;1.48;;
66721;SDS011;53633;49.932;10.884;2023-03-29T14:44:49;4.32;;;1.30;;
66721;SDS011;53633;49.932;10.884;2023-03-29T14:47:25;5.38;;;1.40;;
66721;SDS011;53633;49.932;10.884;2023-03-29T14:49:55;6.00;;;1.27;;
66721;SDS011;53633;49.932;10.884;2023-03-29T14:52:23;5.00;;;1.10;;
66721;SDS011;53633;49.932;10.884;2023-03-29T14:54:51;8.70;;;1.65;;
66721;SDS011;53633;49.932;10.884;2023-03-29T14:57:21;4.85;;;1.33;;